sensor_id;sensor_type;location;lat;lon;timestamp;temperature;humidity
17252;DHT22;8742;51.716;8.790;2022-11-02T00:00:19;12.30;99.90
17252;DHT22;8742;51.716;8.790;2022-11-02T00:02:46;12.30;99.90
17252;DHT22;8742;51.716;8.790;2022-11-02T00:05:13;12.20;99.90
17252;DHT22;8742;51.716;8.790;2022-11-02T00:07:40;12.20;99.90
17252;DHT22;8742;51.716;8.790;2022-11-02T00:10:08;12.20;99.90
17252;DHT22;8742;51.716;8.790;2022-11-02T00:12:36;12.30;99.90
17252;DHT22;8742;51.716;8.790;2022-11-02T00:15:05;12.20;99.90
17252;DHT22;8742;51.716;8.790;2022-11-02T00:17:33;12.20;99.90
17252;DHT22;8742;51.716;8.790;2022-11-02T00:20:01;12.20;99.90
17252;DHT22;8742;51.716;8.790;2022-11-02T00:22:28;12.20;99.90
17252;DHT22;8742;51.716;8.790;2022-11-02T00:24:55;12.20;99.90
17252;DHT22;8742;51.716;8.790;2022-11-02T00:27:22;12.20;99.90
17252;DHT22;8742;51.716;8.790;2022-11-02T00:29:50;12.30;99.90
17252;DHT22;8742;51.716;8.790;2022-11-02T00:32:18;12.30;99.90
17252;DHT22;8742;51.716;8.790;2022-11-02T00:34:45;12.30;99.90
17252;DHT22;8742;51.716;8.790;2022-11-02T00:37:11;12.30;99.90
17252;DHT22;8742;51.716;8.790;2022-11-02T00:39:38;12.40;99.90
17252;DHT22;8742;51.716;8.790;2022-11-02T00:42:05;12.40;99.90
17252;DHT22;8742;51.716;8.790;2022-11-02T00:44:32;12.50;99.90
17252;DHT22;8742;51.716;8.790;2022-11-02T00:46:59;12.50;99.90
17252;DHT22;8742;51.716;8.790;2022-11-02T00:49:27;12.50;99.90
17252;DHT22;8742;51.716;8.790;2022-11-02T00:51:54;12.50;99.90
17252;DHT22;8742;51.716;8.790;2022-11-02T00:54:20;12.60;99.90
17252;DHT22;8742;51.716;8.790;2022-11-02T00:56:47;12.60;99.90
17252;DHT22;8742;51.716;8.790;2022-11-02T00:59:14;12.60;99.90
17252;DHT22;8742;51.716;8.790;2022-11-02T01:01:41;12.60;99.90
17252;DHT22;8742;51.716;8.790;2022-11-02T01:04:12;12.60;99.90
17252;DHT22;8742;51.716;8.790;2022-11-02T01:06:40;12.60;99.90
17252;DHT22;8742;51.716;8.790;2022-11-02T01:09:07;12.60;99.90
17252;DHT22;8742;51.716;8.790;2022-11-02T01:11:34;12.60;99.90
17252;DHT22;8742;51.716;8.790;2022-11-02T01:14:02;12.70;99.90
17252;DHT22;8742;51.716;8.790;2022-11-02T01:16:29;12.70;99.90
17252;DHT22;8742;51.716;8.790;2022-11-02T01:18:57;12.60;99.90
17252;DHT22;8742;51.716;8.790;2022-11-02T01:21:25;12.60;99.90
17252;DHT22;8742;51.716;8.790;2022-11-02T01:23:54;12.60;99.90
17252;DHT22;8742;51.716;8.790;2022-11-02T01:26:21;12.60;99.90
17252;DHT22;8742;51.716;8.790;2022-11-02T01:28:47;12.70;99.90
17252;DHT22;8742;51.716;8.790;2022-11-02T01:31:14;12.70;99.90
17252;DHT22;8742;51.716;8.790;2022-11-02T01:33:42;12.80;99.90
17252;DHT22;8742;51.716;8.790;2022-11-02T01:36:11;12.80;99.90
17252;DHT22;8742;51.716;8.790;2022-11-02T01:38:38;12.80;99.90
17252;DHT22;8742;51.716;8.790;2022-11-02T01:41:07;12.80;99.90
17252;DHT22;8742;51.716;8.790;2022-11-02T01:43:36;12.80;99.90
17252;DHT22;8742;51.716;8.790;2022-11-02T01:46:06;12.80;99.90
17252;DHT22;8742;51.716;8.790;2022-11-02T01:48:35;12.80;99.90
17252;DHT22;8742;51.716;8.790;2022-11-02T01:51:05;12.70;99.90
17252;DHT22;8742;51.716;8.790;2022-11-02T01:53:35;12.70;99.90
17252;DHT22;8742;51.716;8.790;2022-11-02T01:56:03;12.60;99.90
17252;DHT22;8742;51.716;8.790;2022-11-02T01:58:32;12.50;99.90
17252;DHT22;8742;51.716;8.790;2022-11-02T02:00:59;12.50;99.90
17252;DHT22;8742;51.716;8.790;2022-11-02T02:03:28;12.40;99.90
17252;DHT22;8742;51.716;8.790;2022-11-02T02:05:59;12.30;99.90
17252;DHT22;8742;51.716;8.790;2022-11-02T02:08:27;12.20;99.90
17252;DHT22;8742;51.716;8.790;2022-11-02T02:10:55;12.10;99.90
17252;DHT22;8742;51.716;8.790;2022-11-02T02:13:22;12.10;99.90
17252;DHT22;8742;51.716;8.790;2022-11-02T02:15:59;12.10;99.90
17252;DHT22;8742;51.716;8.790;2022-11-02T02:18:31;12.10;99.90
17252;DHT22;8742;51.716;8.790;2022-11-02T02:21:11;12.20;99.90
17252;DHT22;8742;51.716;8.790;2022-11-02T02:24:16;12.20;99.90
17252;DHT22;8742;51.716;8.790;2022-11-02T02:27:10;12.30;99.90
17252;DHT22;8742;51.716;8.790;2022-11-02T02:29:52;12.40;99.90
17252;DHT22;8742;51.716;8.790;2022-11-02T02:32:28;12.40;99.90
17252;DHT22;8742;51.716;8.790;2022-11-02T02:34:58;12.50;99.90
17252;DHT22;8742;51.716;8.790;2022-11-02T02:37:30;12.50;99.90
17252;DHT22;8742;51.716;8.790;2022-11-02T02:40:05;12.50;99.90
17252;DHT22;8742;51.716;8.790;2022-11-02T02:42:39;12.50;99.90
17252;DHT22;8742;51.716;8.790;2022-11-02T02:45:12;12.50;99.90
17252;DHT22;8742;51.716;8.790;2022-11-02T02:47:44;12.50;99.90
17252;DHT22;8742;51.716;8.790;2022-11-02T02:50:16;12.50;99.90
17252;DHT22;8742;51.716;8.790;2022-11-02T02:52:46;12.50;99.90
17252;DHT22;8742;51.716;8.790;2022-11-02T02:55:17;12.50;99.90
17252;DHT22;8742;51.716;8.790;2022-11-02T02:57:45;12.50;99.90
17252;DHT22;8742;51.716;8.790;2022-11-02T03:00:15;12.50;99.90
17252;DHT22;8742;51.716;8.790;2022-11-02T03:02:44;12.50;99.90
17252;DHT22;8742;51.716;8.790;2022-11-02T03:05:28;12.50;99.90
17252;DHT22;8742;51.716;8.790;2022-11-02T03:07:59;12.50;99.90
17252;DHT22;8742;51.716;8.790;2022-11-02T03:10:30;12.50;99.90
17252;DHT22;8742;51.716;8.790;2022-11-02T03:13:07;12.50;99.90
17252;DHT22;8742;51.716;8.790;2022-11-02T03:15:40;12.40;99.90
17252;DHT22;8742;51.716;8.790;2022-11-02T03:18:15;12.40;99.90
17252;DHT22;8742;51.716;8.790;2022-11-02T03:20:55;12.40;99.90
17252;DHT22;8742;51.716;8.790;2022-11-02T03:23:27;12.40;99.90
17252;DHT22;8742;51.716;8.790;2022-11-02T03:26:01;12.40;99.90
17252;DHT22;8742;51.716;8.790;2022-11-02T03:28:40;12.40;99.90
17252;DHT22;8742;51.716;8.790;2022-11-02T03:31:13;12.40;99.90
17252;DHT22;8742;51.716;8.790;2022-11-02T03:33:48;12.50;99.90
17252;DHT22;8742;51.716;8.790;2022-11-02T03:36:21;12.50;99.90
17252;DHT22;8742;51.716;8.790;2022-11-02T03:38:55;12.50;99.90
17252;DHT22;8742;51.716;8.790;2022-11-02T03:41:25;12.50;99.90
17252;DHT22;8742;51.716;8.790;2022-11-02T03:44:02;12.50;99.90
17252;DHT22;8742;51.716;8.790;2022-11-02T03:46:36;12.60;99.90
17252;DHT22;8742;51.716;8.790;2022-11-02T03:49:05;12.60;99.90
17252;DHT22;8742;51.716;8.790;2022-11-02T03:51:36;12.70;99.90
17252;DHT22;8742;51.716;8.790;2022-11-02T03:54:07;12.70;99.90
17252;DHT22;8742;51.716;8.790;2022-11-02T03:56:39;12.70;99.90
17252;DHT22;8742;51.716;8.790;2022-11-02T03:59:07;12.80;99.90
17252;DHT22;8742;51.716;8.790;2022-11-02T04:01:39;12.80;99.90
17252;DHT22;8742;51.716;8.790;2022-11-02T04:04:07;12.80;99.90
17252;DHT22;8742;51.716;8.790;2022-11-02T04:06:34;12.70;99.90
17252;DHT22;8742;51.716;8.790;2022-11-02T04:09:02;12.60;99.90
17252;DHT22;8742;51.716;8.790;2022-11-02T04:11:30;12.60;99.90
17252;DHT22;8742;51.716;8.790;2022-11-02T04:14:15;12.70;99.90
17252;DHT22;8742;51.716;8.790;2022-11-02T04:17:01;12.70;99.90
17252;DHT22;8742;51.716;8.790;2022-11-02T04:19:45;12.70;99.90
17252;DHT22;8742;51.716;8.790;2022-11-02T04:22:12;12.60;99.90
17252;DHT22;8742;51.716;8.790;2022-11-02T04:24:56;12.60;99.90
17252;DHT22;8742;51.716;8.790;2022-11-02T04:27:44;12.50;99.90
17252;DHT22;8742;51.716;8.790;2022-11-02T04:30:12;12.40;99.90
17252;DHT22;8742;51.716;8.790;2022-11-02T04:32:44;12.40;99.90
17252;DHT22;8742;51.716;8.790;2022-11-02T04:35:29;12.30;99.90
17252;DHT22;8742;51.716;8.790;2022-11-02T04:37:57;12.30;99.90
17252;DHT22;8742;51.716;8.790;2022-11-02T04:40:41;12.30;99.90
17252;DHT22;8742;51.716;8.790;2022-11-02T04:43:08;12.30;99.90
17252;DHT22;8742;51.716;8.790;2022-11-02T04:45:35;12.20;99.90
17252;DHT22;8742;51.716;8.790;2022-11-02T04:48:05;12.20;99.90
17252;DHT22;8742;51.716;8.790;2022-11-02T04:50:32;12.20;99.90
17252;DHT22;8742;51.716;8.790;2022-11-02T04:53:02;12.20;99.90
17252;DHT22;8742;51.716;8.790;2022-11-02T04:55:29;12.20;99.90
17252;DHT22;8742;51.716;8.790;2022-11-02T04:57:56;12.30;99.90
17252;DHT22;8742;51.716;8.790;2022-11-02T05:00:23;12.30;99.90
17252;DHT22;8742;51.716;8.790;2022-11-02T05:02:50;12.30;99.90
17252;DHT22;8742;51.716;8.790;2022-11-02T05:05:20;12.30;99.90
17252;DHT22;8742;51.716;8.790;2022-11-02T05:07:47;12.30;99.90
17252;DHT22;8742;51.716;8.790;2022-11-02T05:10:16;12.30;99.90
17252;DHT22;8742;51.716;8.790;2022-11-02T05:12:43;12.30;99.90
17252;DHT22;8742;51.716;8.790;2022-11-02T05:15:11;12.30;99.90
17252;DHT22;8742;51.716;8.790;2022-11-02T05:17:38;12.30;99.90
17252;DHT22;8742;51.716;8.790;2022-11-02T05:20:05;12.30;99.90
17252;DHT22;8742;51.716;8.790;2022-11-02T05:22:34;12.30;99.90
17252;DHT22;8742;51.716;8.790;2022-11-02T05:25:01;12.20;99.90
17252;DHT22;8742;51.716;8.790;2022-11-02T05:27:28;12.20;99.90
17252;DHT22;8742;51.716;8.790;2022-11-02T05:29:55;12.20;99.90
17252;DHT22;8742;51.716;8.790;2022-11-02T05:32:22;12.10;99.90
17252;DHT22;8742;51.716;8.790;2022-11-02T05:34:48;12.10;99.90
17252;DHT22;8742;51.716;8.790;2022-11-02T05:37:15;12.00;99.90
17252;DHT22;8742;51.716;8.790;2022-11-02T05:39:43;12.00;99.90
17252;DHT22;8742;51.716;8.790;2022-11-02T05:42:10;12.00;99.90
17252;DHT22;8742;51.716;8.790;2022-11-02T05:44:37;12.00;99.90
17252;DHT22;8742;51.716;8.790;2022-11-02T05:47:04;12.00;99.90
17252;DHT22;8742;51.716;8.790;2022-11-02T05:49:31;12.00;99.90
17252;DHT22;8742;51.716;8.790;2022-11-02T05:51:58;11.90;99.90
17252;DHT22;8742;51.716;8.790;2022-11-02T05:54:25;11.90;99.90
17252;DHT22;8742;51.716;8.790;2022-11-02T05:56:53;11.90;99.90
17252;DHT22;8742;51.716;8.790;2022-11-02T05:59:20;11.80;99.90
17252;DHT22;8742;51.716;8.790;2022-11-02T06:01:47;11.80;99.90
17252;DHT22;8742;51.716;8.790;2022-11-02T06:04:14;11.80;99.90
17252;DHT22;8742;51.716;8.790;2022-11-02T06:06:41;11.80;99.90
17252;DHT22;8742;51.716;8.790;2022-11-02T06:09:08;11.80;99.90
17252;DHT22;8742;51.716;8.790;2022-11-02T06:11:35;11.80;99.90
17252;DHT22;8742;51.716;8.790;2022-11-02T06:14:03;11.80;99.90
17252;DHT22;8742;51.716;8.790;2022-11-02T06:16:31;11.80;99.90
17252;DHT22;8742;51.716;8.790;2022-11-02T06:18:58;11.80;99.90
17252;DHT22;8742;51.716;8.790;2022-11-02T06:21:25;11.80;99.90
17252;DHT22;8742;51.716;8.790;2022-11-02T06:23:52;11.90;99.90
17252;DHT22;8742;51.716;8.790;2022-11-02T06:26:19;11.90;99.90
17252;DHT22;8742;51.716;8.790;2022-11-02T06:28:45;11.90;99.90
17252;DHT22;8742;51.716;8.790;2022-11-02T06:31:14;11.90;99.90
17252;DHT22;8742;51.716;8.790;2022-11-02T06:33:42;11.80;99.90
17252;DHT22;8742;51.716;8.790;2022-11-02T06:36:10;11.90;99.90
17252;DHT22;8742;51.716;8.790;2022-11-02T06:38:36;11.80;99.90
17252;DHT22;8742;51.716;8.790;2022-11-02T06:41:04;11.80;99.90
17252;DHT22;8742;51.716;8.790;2022-11-02T06:43:32;11.80;99.90
17252;DHT22;8742;51.716;8.790;2022-11-02T06:45:59;11.90;99.90
17252;DHT22;8742;51.716;8.790;2022-11-02T06:48:27;11.90;99.90
17252;DHT22;8742;51.716;8.790;2022-11-02T06:50:55;11.90;99.90
17252;DHT22;8742;51.716;8.790;2022-11-02T06:53:22;11.90;99.90
17252;DHT22;8742;51.716;8.790;2022-11-02T06:55:53;12.00;99.90
17252;DHT22;8742;51.716;8.790;2022-11-02T06:58:20;12.00;99.90
17252;DHT22;8742;51.716;8.790;2022-11-02T07:00:48;12.10;99.90
17252;DHT22;8742;51.716;8.790;2022-11-02T07:03:14;12.20;99.90
17252;DHT22;8742;51.716;8.790;2022-11-02T07:05:49;12.30;99.90
17252;DHT22;8742;51.716;8.790;2022-11-02T07:08:19;12.30;99.90
17252;DHT22;8742;51.716;8.790;2022-11-02T07:10:46;12.40;99.90
17252;DHT22;8742;51.716;8.790;2022-11-02T07:13:13;12.50;99.90
17252;DHT22;8742;51.716;8.790;2022-11-02T07:15:40;12.50;99.90
17252;DHT22;8742;51.716;8.790;2022-11-02T07:18:07;12.50;99.90
17252;DHT22;8742;51.716;8.790;2022-11-02T07:20:34;12.50;99.90
17252;DHT22;8742;51.716;8.790;2022-11-02T07:23:03;12.50;99.90
17252;DHT22;8742;51.716;8.790;2022-11-02T07:25:31;12.60;99.90
17252;DHT22;8742;51.716;8.790;2022-11-02T07:27:58;12.60;99.90
17252;DHT22;8742;51.716;8.790;2022-11-02T07:30:25;12.60;99.90
17252;DHT22;8742;51.716;8.790;2022-11-02T07:32:52;12.70;99.90
17252;DHT22;8742;51.716;8.790;2022-11-02T07:35:22;12.80;99.90
17252;DHT22;8742;51.716;8.790;2022-11-02T07:37:56;12.80;99.90
17252;DHT22;8742;51.716;8.790;2022-11-02T07:40:31;12.90;99.90
17252;DHT22;8742;51.716;8.790;2022-11-02T07:42:58;13.00;99.90
17252;DHT22;8742;51.716;8.790;2022-11-02T07:45:25;13.10;99.90
17252;DHT22;8742;51.716;8.790;2022-11-02T07:47:53;13.20;99.90
17252;DHT22;8742;51.716;8.790;2022-11-02T07:50:22;13.30;99.90
17252;DHT22;8742;51.716;8.790;2022-11-02T07:52:50;13.50;99.90
17252;DHT22;8742;51.716;8.790;2022-11-02T07:55:19;13.60;99.90
17252;DHT22;8742;51.716;8.790;2022-11-02T07:57:53;13.70;99.90
17252;DHT22;8742;51.716;8.790;2022-11-02T08:00:21;13.80;99.90
17252;DHT22;8742;51.716;8.790;2022-11-02T08:02:49;13.80;99.90
17252;DHT22;8742;51.716;8.790;2022-11-02T08:05:19;13.80;99.90
17252;DHT22;8742;51.716;8.790;2022-11-02T08:07:45;13.80;99.90
17252;DHT22;8742;51.716;8.790;2022-11-02T08:10:13;13.80;99.90
17252;DHT22;8742;51.716;8.790;2022-11-02T08:12:40;13.80;99.90
17252;DHT22;8742;51.716;8.790;2022-11-02T08:15:09;13.80;99.90
17252;DHT22;8742;51.716;8.790;2022-11-02T08:17:36;13.80;99.90
17252;DHT22;8742;51.716;8.790;2022-11-02T08:20:04;13.80;99.90
17252;DHT22;8742;51.716;8.790;2022-11-02T08:22:36;13.80;99.90
17252;DHT22;8742;51.716;8.790;2022-11-02T08:25:03;13.90;99.90
17252;DHT22;8742;51.716;8.790;2022-11-02T08:27:30;13.90;99.90
17252;DHT22;8742;51.716;8.790;2022-11-02T08:30:09;14.00;99.90
17252;DHT22;8742;51.716;8.790;2022-11-02T08:32:36;14.00;99.90
17252;DHT22;8742;51.716;8.790;2022-11-02T08:35:04;14.00;99.90
17252;DHT22;8742;51.716;8.790;2022-11-02T08:37:31;14.10;99.90
17252;DHT22;8742;51.716;8.790;2022-11-02T08:39:57;14.10;99.90
17252;DHT22;8742;51.716;8.790;2022-11-02T08:42:24;14.10;99.90
17252;DHT22;8742;51.716;8.790;2022-11-02T08:44:51;14.20;99.90
17252;DHT22;8742;51.716;8.790;2022-11-02T08:47:19;14.50;99.90
17252;DHT22;8742;51.716;8.790;2022-11-02T08:49:46;14.70;99.90
17252;DHT22;8742;51.716;8.790;2022-11-02T08:52:13;14.80;99.90
17252;DHT22;8742;51.716;8.790;2022-11-02T08:54:40;14.70;99.90
17252;DHT22;8742;51.716;8.790;2022-11-02T08:57:07;14.80;99.90
17252;DHT22;8742;51.716;8.790;2022-11-02T08:59:33;15.00;99.90
17252;DHT22;8742;51.716;8.790;2022-11-02T09:02:02;14.90;99.90
17252;DHT22;8742;51.716;8.790;2022-11-02T09:04:40;14.80;99.90
17252;DHT22;8742;51.716;8.790;2022-11-02T09:07:10;14.70;99.90
17252;DHT22;8742;51.716;8.790;2022-11-02T09:09:37;14.60;99.90
17252;DHT22;8742;51.716;8.790;2022-11-02T09:12:04;14.60;99.90
17252;DHT22;8742;51.716;8.790;2022-11-02T09:14:31;14.60;99.90
17252;DHT22;8742;51.716;8.790;2022-11-02T09:16:57;14.60;99.90
17252;DHT22;8742;51.716;8.790;2022-11-02T09:19:24;14.50;99.90
17252;DHT22;8742;51.716;8.790;2022-11-02T09:21:52;14.60;99.90
17252;DHT22;8742;51.716;8.790;2022-11-02T09:24:21;14.60;99.90
17252;DHT22;8742;51.716;8.790;2022-11-02T09:26:50;14.50;99.90
17252;DHT22;8742;51.716;8.790;2022-11-02T09:29:17;14.50;99.90
17252;DHT22;8742;51.716;8.790;2022-11-02T09:31:44;14.40;99.90
17252;DHT22;8742;51.716;8.790;2022-11-02T09:34:13;14.70;99.90
17252;DHT22;8742;51.716;8.790;2022-11-02T09:36:40;14.80;99.90
17252;DHT22;8742;51.716;8.790;2022-11-02T09:39:08;14.70;99.90
17252;DHT22;8742;51.716;8.790;2022-11-02T09:41:40;14.60;99.90
17252;DHT22;8742;51.716;8.790;2022-11-02T09:44:11;14.50;99.90
17252;DHT22;8742;51.716;8.790;2022-11-02T09:46:43;15.20;99.90
17252;DHT22;8742;51.716;8.790;2022-11-02T09:49:14;16.30;99.90
17252;DHT22;8742;51.716;8.790;2022-11-02T09:51:44;17.30;99.90
17252;DHT22;8742;51.716;8.790;2022-11-02T09:54:17;17.90;99.90
17252;DHT22;8742;51.716;8.790;2022-11-02T09:56:46;18.40;99.90
17252;DHT22;8742;51.716;8.790;2022-11-02T09:59:15;18.30;99.90
17252;DHT22;8742;51.716;8.790;2022-11-02T10:01:54;18.00;99.90
17252;DHT22;8742;51.716;8.790;2022-11-02T10:07:21;17.90;99.90
17252;DHT22;8742;51.716;8.790;2022-11-02T10:09:57;18.00;99.90
17252;DHT22;8742;51.716;8.790;2022-11-02T10:12:30;18.40;99.90
17252;DHT22;8742;51.716;8.790;2022-11-02T10:15:04;18.90;99.90
17252;DHT22;8742;51.716;8.790;2022-11-02T10:17:34;19.30;99.90
17252;DHT22;8742;51.716;8.790;2022-11-02T10:20:10;19.40;99.90
17252;DHT22;8742;51.716;8.790;2022-11-02T10:22:43;19.30;99.90
17252;DHT22;8742;51.716;8.790;2022-11-02T10:25:15;19.70;99.90
17252;DHT22;8742;51.716;8.790;2022-11-02T10:27:46;20.20;99.50
17252;DHT22;8742;51.716;8.790;2022-11-02T10:30:19;20.50;99.00
17252;DHT22;8742;51.716;8.790;2022-11-02T10:32:50;20.80;98.40
17252;DHT22;8742;51.716;8.790;2022-11-02T10:35:22;21.10;96.90
17252;DHT22;8742;51.716;8.790;2022-11-02T10:37:59;21.40;96.60
17252;DHT22;8742;51.716;8.790;2022-11-02T10:40:49;21.60;95.40
17252;DHT22;8742;51.716;8.790;2022-11-02T10:43:30;21.60;94.30
17252;DHT22;8742;51.716;8.790;2022-11-02T10:46:12;21.30;93.70
17252;DHT22;8742;51.716;8.790;2022-11-02T10:48:47;21.20;93.50
17252;DHT22;8742;51.716;8.790;2022-11-02T10:51:17;21.30;93.20
17252;DHT22;8742;51.716;8.790;2022-11-02T10:53:47;21.50;92.80
17252;DHT22;8742;51.716;8.790;2022-11-02T10:56:18;21.60;91.40
17252;DHT22;8742;51.716;8.790;2022-11-02T10:58:59;21.20;92.10
17252;DHT22;8742;51.716;8.790;2022-11-02T11:01:30;20.80;91.30
17252;DHT22;8742;51.716;8.790;2022-11-02T11:03:59;20.10;91.20
17252;DHT22;8742;51.716;8.790;2022-11-02T11:06:31;19.50;92.00
17252;DHT22;8742;51.716;8.790;2022-11-02T11:09:03;19.00;92.80
17252;DHT22;8742;51.716;8.790;2022-11-02T11:11:35;19.40;92.90
17252;DHT22;8742;51.716;8.790;2022-11-02T11:14:06;19.70;92.80
17252;DHT22;8742;51.716;8.790;2022-11-02T11:16:44;20.10;92.40
17252;DHT22;8742;51.716;8.790;2022-11-02T11:19:21;20.20;91.80
17252;DHT22;8742;51.716;8.790;2022-11-02T11:21:49;20.10;90.00
17252;DHT22;8742;51.716;8.790;2022-11-02T11:24:24;19.90;91.10
17252;DHT22;8742;51.716;8.790;2022-11-02T11:27:22;19.60;91.20
17252;DHT22;8742;51.716;8.790;2022-11-02T11:29:54;19.70;90.90
17252;DHT22;8742;51.716;8.790;2022-11-02T11:32:24;20.20;91.00
17252;DHT22;8742;51.716;8.790;2022-11-02T11:34:57;20.70;90.40
17252;DHT22;8742;51.716;8.790;2022-11-02T11:37:25;21.00;90.80
17252;DHT22;8742;51.716;8.790;2022-11-02T11:39:57;21.50;90.30
17252;DHT22;8742;51.716;8.790;2022-11-02T11:42:28;21.80;87.70
17252;DHT22;8742;51.716;8.790;2022-11-02T11:44:59;21.50;86.40
17252;DHT22;8742;51.716;8.790;2022-11-02T11:47:38;21.40;87.70
17252;DHT22;8742;51.716;8.790;2022-11-02T11:50:21;21.70;87.30
17252;DHT22;8742;51.716;8.790;2022-11-02T11:53:07;22.10;87.70
17252;DHT22;8742;51.716;8.790;2022-11-02T11:55:45;22.70;85.50
17252;DHT22;8742;51.716;8.790;2022-11-02T11:58:21;23.00;86.80
17252;DHT22;8742;51.716;8.790;2022-11-02T12:01:06;23.30;84.80
17252;DHT22;8742;51.716;8.790;2022-11-02T12:03:54;23.50;84.10
17252;DHT22;8742;51.716;8.790;2022-11-02T12:06:27;23.70;82.50
17252;DHT22;8742;51.716;8.790;2022-11-02T12:09:03;23.50;79.00
17252;DHT22;8742;51.716;8.790;2022-11-02T12:11:43;22.90;79.60
17252;DHT22;8742;51.716;8.790;2022-11-02T12:14:25;22.50;80.30
17252;DHT22;8742;51.716;8.790;2022-11-02T12:17:08;22.30;81.90
17252;DHT22;8742;51.716;8.790;2022-11-02T12:19:52;22.50;80.70
17252;DHT22;8742;51.716;8.790;2022-11-02T12:22:32;23.00;79.90
17252;DHT22;8742;51.716;8.790;2022-11-02T12:25:22;23.20;79.60
17252;DHT22;8742;51.716;8.790;2022-11-02T12:28:09;23.50;75.60
17252;DHT22;8742;51.716;8.790;2022-11-02T12:30:53;23.40;78.20
17252;DHT22;8742;51.716;8.790;2022-11-02T12:33:43;23.60;76.80
17252;DHT22;8742;51.716;8.790;2022-11-02T12:36:32;23.70;77.80
17252;DHT22;8742;51.716;8.790;2022-11-02T12:39:06;23.90;75.40
17252;DHT22;8742;51.716;8.790;2022-11-02T12:41:44;23.60;73.90
17252;DHT22;8742;51.716;8.790;2022-11-02T12:44:31;22.90;73.40
17252;DHT22;8742;51.716;8.790;2022-11-02T12:47:15;21.50;73.60
17252;DHT22;8742;51.716;8.790;2022-11-02T12:49:49;20.20;77.30
17252;DHT22;8742;51.716;8.790;2022-11-02T12:52:28;19.20;79.40
17252;DHT22;8742;51.716;8.790;2022-11-02T12:55:01;18.40;82.20
17252;DHT22;8742;51.716;8.790;2022-11-02T12:57:35;17.80;83.80
17252;DHT22;8742;51.716;8.790;2022-11-02T13:00:05;17.30;85.40
17252;DHT22;8742;51.716;8.790;2022-11-02T13:02:43;16.90;86.30
17252;DHT22;8742;51.716;8.790;2022-11-02T13:05:15;16.60;87.40
17252;DHT22;8742;51.716;8.790;2022-11-02T13:07:45;16.30;87.70
17252;DHT22;8742;51.716;8.790;2022-11-02T13:10:16;16.20;88.40
17252;DHT22;8742;51.716;8.790;2022-11-02T13:12:47;16.00;88.00
17252;DHT22;8742;51.716;8.790;2022-11-02T13:15:17;15.90;88.60
17252;DHT22;8742;51.716;8.790;2022-11-02T13:17:48;15.70;88.80
17252;DHT22;8742;51.716;8.790;2022-11-02T13:20:20;15.60;89.10
17252;DHT22;8742;51.716;8.790;2022-11-02T13:23:00;15.50;89.50
17252;DHT22;8742;51.716;8.790;2022-11-02T13:25:33;15.40;90.30
17252;DHT22;8742;51.716;8.790;2022-11-02T13:28:11;15.30;90.20
17252;DHT22;8742;51.716;8.790;2022-11-02T13:30:40;15.20;90.10
17252;DHT22;8742;51.716;8.790;2022-11-02T13:33:15;15.20;90.40
17252;DHT22;8742;51.716;8.790;2022-11-02T13:35:42;15.10;90.60
17252;DHT22;8742;51.716;8.790;2022-11-02T13:38:22;15.10;90.60
17252;DHT22;8742;51.716;8.790;2022-11-02T13:41:04;15.00;90.70
17252;DHT22;8742;51.716;8.790;2022-11-02T13:46:55;15.00;90.90
17252;DHT22;8742;51.716;8.790;2022-11-02T13:49:34;14.90;91.20
17252;DHT22;8742;51.716;8.790;2022-11-02T13:52:05;14.90;91.30
17252;DHT22;8742;51.716;8.790;2022-11-02T13:54:40;14.90;91.60
17252;DHT22;8742;51.716;8.790;2022-11-02T13:57:26;14.80;91.80
17252;DHT22;8742;51.716;8.790;2022-11-02T13:59:56;14.80;91.90
17252;DHT22;8742;51.716;8.790;2022-11-02T14:02:23;14.80;91.90
17252;DHT22;8742;51.716;8.790;2022-11-02T14:04:52;14.80;92.10
17252;DHT22;8742;51.716;8.790;2022-11-02T14:07:22;14.80;92.40
17252;DHT22;8742;51.716;8.790;2022-11-02T14:09:57;14.70;92.40
17252;DHT22;8742;51.716;8.790;2022-11-02T14:12:44;14.70;92.40
17252;DHT22;8742;51.716;8.790;2022-11-02T14:15:53;14.70;92.40
17252;DHT22;8742;51.716;8.790;2022-11-02T14:18:29;14.60;92.60
17252;DHT22;8742;51.716;8.790;2022-11-02T14:20:59;14.60;92.80
17252;DHT22;8742;51.716;8.790;2022-11-02T14:23:46;14.60;92.70
17252;DHT22;8742;51.716;8.790;2022-11-02T14:26:33;14.60;93.10
17252;DHT22;8742;51.716;8.790;2022-11-02T14:29:37;14.60;93.00
17252;DHT22;8742;51.716;8.790;2022-11-02T14:32:18;14.60;92.80
17252;DHT22;8742;51.716;8.790;2022-11-02T14:34:56;14.60;93.30
17252;DHT22;8742;51.716;8.790;2022-11-02T14:38:01;14.80;93.70
17252;DHT22;8742;51.716;8.790;2022-11-02T14:40:35;15.20;93.30
17252;DHT22;8742;51.716;8.790;2022-11-02T14:46:09;16.40;92.40
17252;DHT22;8742;51.716;8.790;2022-11-02T14:48:44;16.90;92.10
17252;DHT22;8742;51.716;8.790;2022-11-02T14:51:16;17.30;91.60
17252;DHT22;8742;51.716;8.790;2022-11-02T14:53:47;17.60;90.40
17252;DHT22;8742;51.716;8.790;2022-11-02T14:56:15;17.80;90.40
17252;DHT22;8742;51.716;8.790;2022-11-02T14:58:48;18.00;90.10
17252;DHT22;8742;51.716;8.790;2022-11-02T15:01:17;18.10;88.90
17252;DHT22;8742;51.716;8.790;2022-11-02T15:03:45;18.10;90.10
17252;DHT22;8742;51.716;8.790;2022-11-02T15:06:18;18.10;90.50
17252;DHT22;8742;51.716;8.790;2022-11-02T15:08:52;18.10;90.10
17252;DHT22;8742;51.716;8.790;2022-11-02T15:11:42;18.00;91.20
17252;DHT22;8742;51.716;8.790;2022-11-02T15:14:38;18.00;91.10
17252;DHT22;8742;51.716;8.790;2022-11-02T15:17:51;17.90;90.30
17252;DHT22;8742;51.716;8.790;2022-11-02T15:20:29;17.70;90.30
17252;DHT22;8742;51.716;8.790;2022-11-02T15:23:13;17.40;90.00
17252;DHT22;8742;51.716;8.790;2022-11-02T15:25:48;17.00;89.70
17252;DHT22;8742;51.716;8.790;2022-11-02T15:28:19;16.50;90.20
17252;DHT22;8742;51.716;8.790;2022-11-02T15:30:49;16.10;90.50
17252;DHT22;8742;51.716;8.790;2022-11-02T15:33:32;15.60;91.10
17252;DHT22;8742;51.716;8.790;2022-11-02T15:36:00;15.30;91.20
17252;DHT22;8742;51.716;8.790;2022-11-02T15:38:29;14.90;91.60
17252;DHT22;8742;51.716;8.790;2022-11-02T15:41:04;14.60;92.20
17252;DHT22;8742;51.716;8.790;2022-11-02T15:43:58;14.30;92.20
17252;DHT22;8742;51.716;8.790;2022-11-02T15:46:39;14.00;92.70
17252;DHT22;8742;51.716;8.790;2022-11-02T15:49:20;13.70;93.00
17252;DHT22;8742;51.716;8.790;2022-11-02T15:51:54;13.50;93.30
17252;DHT22;8742;51.716;8.790;2022-11-02T15:54:44;13.30;93.50
17252;DHT22;8742;51.716;8.790;2022-11-02T15:57:22;13.10;94.00
17252;DHT22;8742;51.716;8.790;2022-11-02T16:00:11;12.90;94.30
17252;DHT22;8742;51.716;8.790;2022-11-02T16:02:40;12.70;94.80
17252;DHT22;8742;51.716;8.790;2022-11-02T16:05:15;12.50;95.00
17252;DHT22;8742;51.716;8.790;2022-11-02T16:07:46;12.30;95.40
17252;DHT22;8742;51.716;8.790;2022-11-02T16:10:22;12.20;95.60
17252;DHT22;8742;51.716;8.790;2022-11-02T16:13:19;12.00;95.90
17252;DHT22;8742;51.716;8.790;2022-11-02T16:15:47;11.90;96.00
17252;DHT22;8742;51.716;8.790;2022-11-02T16:18:22;11.80;96.30
17252;DHT22;8742;51.716;8.790;2022-11-02T16:20:51;11.60;96.10
17252;DHT22;8742;51.716;8.790;2022-11-02T16:23:22;11.50;95.90
17252;DHT22;8742;51.716;8.790;2022-11-02T16:25:51;11.30;95.80